sensor_id;sensor_type;location;lat;lon;timestamp;temperature;humidity
324;DHT22;149;51.094;17.002;2023-04-08T00:01:25;7.00;99.90
324;DHT22;149;51.094;17.002;2023-04-08T00:03:52;6.70;99.90
324;DHT22;149;51.094;17.002;2023-04-08T00:06:19;6.80;99.90
324;DHT22;149;51.094;17.002;2023-04-08T00:08:46;6.80;99.90
324;DHT22;149;51.094;17.002;2023-04-08T00:11:13;6.70;99.90
324;DHT22;149;51.094;17.002;2023-04-08T00:13:40;6.80;99.90
324;DHT22;149;51.094;17.002;2023-04-08T00:16:07;6.80;99.90
324;DHT22;149;51.094;17.002;2023-04-08T00:18:34;6.30;99.90
324;DHT22;149;51.094;17.002;2023-04-08T00:21:03;6.00;99.90
324;DHT22;149;51.094;17.002;2023-04-08T00:23:30;6.20;99.90
324;DHT22;149;51.094;17.002;2023-04-08T00:25:57;6.50;99.90
324;DHT22;149;51.094;17.002;2023-04-08T00:28:29;6.60;99.90
324;DHT22;149;51.094;17.002;2023-04-08T00:30:56;6.60;99.90
324;DHT22;149;51.094;17.002;2023-04-08T00:33:24;6.40;99.90
324;DHT22;149;51.094;17.002;2023-04-08T00:35:53;6.40;99.90
324;DHT22;149;51.094;17.002;2023-04-08T00:38:20;6.40;99.90
324;DHT22;149;51.094;17.002;2023-04-08T00:40:48;6.20;99.90
324;DHT22;149;51.094;17.002;2023-04-08T00:43:16;6.20;99.90
324;DHT22;149;51.094;17.002;2023-04-08T00:45:47;6.20;99.90
324;DHT22;149;51.094;17.002;2023-04-08T00:48:16;6.10;99.90
324;DHT22;149;51.094;17.002;2023-04-08T00:50:44;5.80;99.90
324;DHT22;149;51.094;17.002;2023-04-08T00:53:16;5.80;99.90
324;DHT22;149;51.094;17.002;2023-04-08T00:55:46;5.80;99.90
324;DHT22;149;51.094;17.002;2023-04-08T00:58:13;6.00;99.90
324;DHT22;149;51.094;17.002;2023-04-08T01:00:49;5.80;99.90
324;DHT22;149;51.094;17.002;2023-04-08T01:03:33;5.80;99.90
324;DHT22;149;51.094;17.002;2023-04-08T01:06:48;5.80;99.90
324;DHT22;149;51.094;17.002;2023-04-08T01:09:18;5.80;99.90
324;DHT22;149;51.094;17.002;2023-04-08T01:11:52;5.80;99.90
324;DHT22;149;51.094;17.002;2023-04-08T01:14:23;5.80;99.90
324;DHT22;149;51.094;17.002;2023-04-08T01:16:54;5.80;99.90
324;DHT22;149;51.094;17.002;2023-04-08T01:19:32;5.70;99.90
324;DHT22;149;51.094;17.002;2023-04-08T01:22:18;5.70;99.90
324;DHT22;149;51.094;17.002;2023-04-08T01:24:46;5.80;99.90
324;DHT22;149;51.094;17.002;2023-04-08T01:27:13;5.70;99.90
324;DHT22;149;51.094;17.002;2023-04-08T01:29:42;5.70;99.90
324;DHT22;149;51.094;17.002;2023-04-08T01:32:09;5.70;99.90
324;DHT22;149;51.094;17.002;2023-04-08T01:34:39;5.70;99.90
324;DHT22;149;51.094;17.002;2023-04-08T01:37:07;5.70;99.90
324;DHT22;149;51.094;17.002;2023-04-08T01:39:35;5.70;99.90
324;DHT22;149;51.094;17.002;2023-04-08T01:42:02;5.70;99.90
324;DHT22;149;51.094;17.002;2023-04-08T01:44:30;5.70;99.90
324;DHT22;149;51.094;17.002;2023-04-08T01:46:59;5.70;99.90
324;DHT22;149;51.094;17.002;2023-04-08T01:49:28;5.70;99.90
324;DHT22;149;51.094;17.002;2023-04-08T01:51:57;5.60;99.90
324;DHT22;149;51.094;17.002;2023-04-08T01:54:24;5.60;99.90
324;DHT22;149;51.094;17.002;2023-04-08T01:56:53;5.70;99.90
324;DHT22;149;51.094;17.002;2023-04-08T01:59:23;5.50;99.90
324;DHT22;149;51.094;17.002;2023-04-08T02:01:55;5.40;99.90
324;DHT22;149;51.094;17.002;2023-04-08T02:04:22;5.30;99.90
324;DHT22;149;51.094;17.002;2023-04-08T02:06:51;5.20;99.90
324;DHT22;149;51.094;17.002;2023-04-08T02:09:18;5.20;99.90
324;DHT22;149;51.094;17.002;2023-04-08T02:11:45;5.10;99.90
324;DHT22;149;51.094;17.002;2023-04-08T02:14:12;5.10;99.90
324;DHT22;149;51.094;17.002;2023-04-08T02:16:44;5.10;99.90
324;DHT22;149;51.094;17.002;2023-04-08T02:19:19;5.10;99.90
324;DHT22;149;51.094;17.002;2023-04-08T02:21:54;4.90;99.90
324;DHT22;149;51.094;17.002;2023-04-08T02:24:24;4.90;99.90
324;DHT22;149;51.094;17.002;2023-04-08T02:26:51;4.90;99.90
324;DHT22;149;51.094;17.002;2023-04-08T02:29:22;4.90;99.90
324;DHT22;149;51.094;17.002;2023-04-08T02:31:50;4.90;99.90
324;DHT22;149;51.094;17.002;2023-04-08T02:34:19;4.90;99.90
324;DHT22;149;51.094;17.002;2023-04-08T02:36:47;4.90;99.90
324;DHT22;149;51.094;17.002;2023-04-08T02:39:17;4.90;99.90
324;DHT22;149;51.094;17.002;2023-04-08T02:41:43;4.80;99.90
324;DHT22;149;51.094;17.002;2023-04-08T02:44:10;4.80;99.90
324;DHT22;149;51.094;17.002;2023-04-08T02:46:37;4.80;99.90
324;DHT22;149;51.094;17.002;2023-04-08T02:49:04;4.90;99.90
324;DHT22;149;51.094;17.002;2023-04-08T02:51:31;4.80;99.90
324;DHT22;149;51.094;17.002;2023-04-08T02:53:59;4.80;99.90
324;DHT22;149;51.094;17.002;2023-04-08T02:56:25;4.80;99.90
324;DHT22;149;51.094;17.002;2023-04-08T02:58:53;4.80;99.90
324;DHT22;149;51.094;17.002;2023-04-08T03:01:21;4.80;99.90
324;DHT22;149;51.094;17.002;2023-04-08T03:03:47;4.80;99.90
324;DHT22;149;51.094;17.002;2023-04-08T03:06:14;4.90;99.90
324;DHT22;149;51.094;17.002;2023-04-08T03:08:41;4.80;99.90
324;DHT22;149;51.094;17.002;2023-04-08T03:11:08;4.80;99.90
324;DHT22;149;51.094;17.002;2023-04-08T03:13:36;4.70;99.90
324;DHT22;149;51.094;17.002;2023-04-08T03:16:03;4.80;99.90
324;DHT22;149;51.094;17.002;2023-04-08T03:18:30;4.70;99.90
324;DHT22;149;51.094;17.002;2023-04-08T03:20:57;4.70;99.90
324;DHT22;149;51.094;17.002;2023-04-08T03:23:24;4.70;99.90
324;DHT22;149;51.094;17.002;2023-04-08T03:25:50;4.60;99.90
324;DHT22;149;51.094;17.002;2023-04-08T03:28:18;4.70;99.90
324;DHT22;149;51.094;17.002;2023-04-08T03:30:45;4.60;99.90
324;DHT22;149;51.094;17.002;2023-04-08T03:33:12;4.60;99.90
324;DHT22;149;51.094;17.002;2023-04-08T03:35:39;4.70;99.90
324;DHT22;149;51.094;17.002;2023-04-08T03:38:06;4.70;99.90
324;DHT22;149;51.094;17.002;2023-04-08T03:40:33;4.70;99.90
324;DHT22;149;51.094;17.002;2023-04-08T03:42:59;4.70;99.90
324;DHT22;149;51.094;17.002;2023-04-08T03:45:27;4.80;99.90
324;DHT22;149;51.094;17.002;2023-04-08T03:47:54;4.70;99.90
324;DHT22;149;51.094;17.002;2023-04-08T03:50:21;4.80;99.90
324;DHT22;149;51.094;17.002;2023-04-08T03:52:51;4.70;99.90
324;DHT22;149;51.094;17.002;2023-04-08T03:55:18;4.70;99.90
324;DHT22;149;51.094;17.002;2023-04-08T03:57:48;4.70;99.90
324;DHT22;149;51.094;17.002;2023-04-08T04:00:17;4.70;99.90
324;DHT22;149;51.094;17.002;2023-04-08T04:02:46;4.70;99.90
324;DHT22;149;51.094;17.002;2023-04-08T04:05:13;4.70;99.90
324;DHT22;149;51.094;17.002;2023-04-08T04:07:40;4.70;99.90
324;DHT22;149;51.094;17.002;2023-04-08T04:10:10;4.80;99.90
324;DHT22;149;51.094;17.002;2023-04-08T04:12:37;4.70;99.90
324;DHT22;149;51.094;17.002;2023-04-08T04:15:05;4.80;99.90
324;DHT22;149;51.094;17.002;2023-04-08T04:17:32;4.80;99.90
324;DHT22;149;51.094;17.002;2023-04-08T04:19:59;4.70;99.90
324;DHT22;149;51.094;17.002;2023-04-08T04:22:28;4.70;99.90
324;DHT22;149;51.094;17.002;2023-04-08T04:24:55;4.70;99.90
324;DHT22;149;51.094;17.002;2023-04-08T04:27:22;4.70;99.90
324;DHT22;149;51.094;17.002;2023-04-08T04:29:49;4.70;99.90
324;DHT22;149;51.094;17.002;2023-04-08T04:32:16;4.70;99.90
324;DHT22;149;51.094;17.002;2023-04-08T04:34:50;4.70;99.90
324;DHT22;149;51.094;17.002;2023-04-08T04:37:17;4.80;99.90
324;DHT22;149;51.094;17.002;2023-04-08T04:39:46;4.70;99.90
324;DHT22;149;51.094;17.002;2023-04-08T04:42:13;4.80;99.90
324;DHT22;149;51.094;17.002;2023-04-08T04:44:40;4.70;99.90
324;DHT22;149;51.094;17.002;2023-04-08T04:47:06;4.80;99.90
324;DHT22;149;51.094;17.002;2023-04-08T04:49:33;4.80;99.90
324;DHT22;149;51.094;17.002;2023-04-08T04:52:04;4.80;99.90
324;DHT22;149;51.094;17.002;2023-04-08T04:54:31;4.80;99.90
324;DHT22;149;51.094;17.002;2023-04-08T04:57:00;4.70;99.90
324;DHT22;149;51.094;17.002;2023-04-08T04:59:27;4.70;99.90
324;DHT22;149;51.094;17.002;2023-04-08T05:01:59;4.70;99.90
324;DHT22;149;51.094;17.002;2023-04-08T05:04:27;4.70;99.90
324;DHT22;149;51.094;17.002;2023-04-08T05:06:53;4.70;99.90
324;DHT22;149;51.094;17.002;2023-04-08T05:09:21;4.60;99.90
324;DHT22;149;51.094;17.002;2023-04-08T05:11:49;4.50;99.90
324;DHT22;149;51.094;17.002;2023-04-08T05:14:16;4.60;99.90
324;DHT22;149;51.094;17.002;2023-04-08T05:16:43;4.50;99.90
324;DHT22;149;51.094;17.002;2023-04-08T05:19:10;4.60;99.90
324;DHT22;149;51.094;17.002;2023-04-08T05:21:39;4.60;99.90
324;DHT22;149;51.094;17.002;2023-04-08T05:24:08;4.60;99.90
324;DHT22;149;51.094;17.002;2023-04-08T05:26:37;4.70;99.90
324;DHT22;149;51.094;17.002;2023-04-08T05:29:03;4.60;99.90
324;DHT22;149;51.094;17.002;2023-04-08T05:31:31;4.60;99.90
324;DHT22;149;51.094;17.002;2023-04-08T05:33:58;4.60;99.90
324;DHT22;149;51.094;17.002;2023-04-08T05:36:27;4.50;99.90
324;DHT22;149;51.094;17.002;2023-04-08T05:38:57;4.60;99.90
324;DHT22;149;51.094;17.002;2023-04-08T05:41:24;4.70;99.90
324;DHT22;149;51.094;17.002;2023-04-08T05:43:52;4.70;99.90
324;DHT22;149;51.094;17.002;2023-04-08T05:46:20;4.70;99.90
324;DHT22;149;51.094;17.002;2023-04-08T05:48:50;4.70;99.90
324;DHT22;149;51.094;17.002;2023-04-08T05:51:17;4.70;99.90
324;DHT22;149;51.094;17.002;2023-04-08T05:53:44;4.70;99.90
324;DHT22;149;51.094;17.002;2023-04-08T05:56:15;4.70;99.90
324;DHT22;149;51.094;17.002;2023-04-08T05:58:42;4.60;99.90
324;DHT22;149;51.094;17.002;2023-04-08T06:01:09;4.70;99.90
324;DHT22;149;51.094;17.002;2023-04-08T06:03:42;4.70;99.90
324;DHT22;149;51.094;17.002;2023-04-08T06:06:12;4.70;99.90
324;DHT22;149;51.094;17.002;2023-04-08T06:08:40;4.80;99.90
324;DHT22;149;51.094;17.002;2023-04-08T06:11:06;4.90;99.90
324;DHT22;149;51.094;17.002;2023-04-08T06:13:33;4.90;99.90
324;DHT22;149;51.094;17.002;2023-04-08T06:16:14;5.00;99.90
324;DHT22;149;51.094;17.002;2023-04-08T06:18:47;4.90;99.90
324;DHT22;149;51.094;17.002;2023-04-08T06:21:16;4.90;99.90
324;DHT22;149;51.094;17.002;2023-04-08T06:23:45;4.90;99.90
324;DHT22;149;51.094;17.002;2023-04-08T06:26:12;5.00;99.90
324;DHT22;149;51.094;17.002;2023-04-08T06:28:41;4.90;99.90
324;DHT22;149;51.094;17.002;2023-04-08T06:31:10;5.00;99.90
324;DHT22;149;51.094;17.002;2023-04-08T06:33:44;5.10;99.90
324;DHT22;149;51.094;17.002;2023-04-08T06:36:19;5.10;99.90
324;DHT22;149;51.094;17.002;2023-04-08T06:38:46;5.10;99.90
324;DHT22;149;51.094;17.002;2023-04-08T06:41:13;5.10;99.90
324;DHT22;149;51.094;17.002;2023-04-08T06:43:42;5.30;99.90
324;DHT22;149;51.094;17.002;2023-04-08T06:46:11;5.40;99.90
324;DHT22;149;51.094;17.002;2023-04-08T06:48:39;5.70;99.90
324;DHT22;149;51.094;17.002;2023-04-08T06:51:06;5.70;99.90
324;DHT22;149;51.094;17.002;2023-04-08T06:53:33;5.90;99.90
324;DHT22;149;51.094;17.002;2023-04-08T06:56:00;6.00;99.90
324;DHT22;149;51.094;17.002;2023-04-08T06:58:27;6.40;99.90
324;DHT22;149;51.094;17.002;2023-04-08T07:00:55;6.90;99.90
324;DHT22;149;51.094;17.002;2023-04-08T07:03:24;6.70;99.90
324;DHT22;149;51.094;17.002;2023-04-08T07:05:51;6.40;99.90
324;DHT22;149;51.094;17.002;2023-04-08T07:08:18;6.40;99.90
324;DHT22;149;51.094;17.002;2023-04-08T07:10:45;6.40;99.90
324;DHT22;149;51.094;17.002;2023-04-08T07:13:12;6.60;99.90
324;DHT22;149;51.094;17.002;2023-04-08T07:15:40;6.30;99.90
324;DHT22;149;51.094;17.002;2023-04-08T07:18:07;6.50;99.90
324;DHT22;149;51.094;17.002;2023-04-08T07:20:33;6.60;99.90
324;DHT22;149;51.094;17.002;2023-04-08T07:23:03;6.50;99.90
324;DHT22;149;51.094;17.002;2023-04-08T07:25:32;7.00;99.90
324;DHT22;149;51.094;17.002;2023-04-08T07:28:00;6.90;99.90
324;DHT22;149;51.094;17.002;2023-04-08T07:30:27;6.60;99.90
324;DHT22;149;51.094;17.002;2023-04-08T07:32:53;6.50;99.90
324;DHT22;149;51.094;17.002;2023-04-08T07:35:23;6.30;99.90
324;DHT22;149;51.094;17.002;2023-04-08T07:37:50;6.30;99.90
324;DHT22;149;51.094;17.002;2023-04-08T07:40:18;6.30;99.90
324;DHT22;149;51.094;17.002;2023-04-08T07:42:47;6.40;99.90
324;DHT22;149;51.094;17.002;2023-04-08T07:45:15;6.60;99.90
324;DHT22;149;51.094;17.002;2023-04-08T07:47:41;6.90;99.90
324;DHT22;149;51.094;17.002;2023-04-08T07:50:10;7.10;99.90
324;DHT22;149;51.094;17.002;2023-04-08T07:52:37;7.10;99.90
324;DHT22;149;51.094;17.002;2023-04-08T07:55:04;7.40;99.90
324;DHT22;149;51.094;17.002;2023-04-08T07:57:32;7.30;99.90
324;DHT22;149;51.094;17.002;2023-04-08T07:59:59;7.20;99.90
324;DHT22;149;51.094;17.002;2023-04-08T08:02:26;7.30;99.90
324;DHT22;149;51.094;17.002;2023-04-08T08:04:53;7.20;99.90
324;DHT22;149;51.094;17.002;2023-04-08T08:07:20;7.30;99.90
324;DHT22;149;51.094;17.002;2023-04-08T08:09:47;7.60;99.90
324;DHT22;149;51.094;17.002;2023-04-08T08:12:15;7.30;99.90
324;DHT22;149;51.094;17.002;2023-04-08T08:14:41;7.00;99.90
324;DHT22;149;51.094;17.002;2023-04-08T08:17:08;7.20;99.90
324;DHT22;149;51.094;17.002;2023-04-08T08:19:37;7.40;99.90
324;DHT22;149;51.094;17.002;2023-04-08T08:22:04;7.60;99.90
324;DHT22;149;51.094;17.002;2023-04-08T08:24:32;8.10;99.90
324;DHT22;149;51.094;17.002;2023-04-08T08:26:59;7.90;99.90
324;DHT22;149;51.094;17.002;2023-04-08T08:29:28;7.80;99.90
324;DHT22;149;51.094;17.002;2023-04-08T08:31:55;7.80;99.90
324;DHT22;149;51.094;17.002;2023-04-08T08:34:22;7.80;99.90
324;DHT22;149;51.094;17.002;2023-04-08T08:36:50;7.60;99.90
324;DHT22;149;51.094;17.002;2023-04-08T08:39:19;7.70;99.90
324;DHT22;149;51.094;17.002;2023-04-08T08:41:46;7.80;99.90
324;DHT22;149;51.094;17.002;2023-04-08T08:44:13;7.70;99.90
324;DHT22;149;51.094;17.002;2023-04-08T08:46:44;7.80;99.90
324;DHT22;149;51.094;17.002;2023-04-08T08:49:12;8.10;99.90
324;DHT22;149;51.094;17.002;2023-04-08T08:51:40;7.90;99.90
324;DHT22;149;51.094;17.002;2023-04-08T08:54:07;7.90;99.90
324;DHT22;149;51.094;17.002;2023-04-08T08:56:35;8.30;99.90
324;DHT22;149;51.094;17.002;2023-04-08T08:59:01;8.60;99.90
324;DHT22;149;51.094;17.002;2023-04-08T09:04:08;8.90;99.90
324;DHT22;149;51.094;17.002;2023-04-08T09:06:36;8.60;99.90
324;DHT22;149;51.094;17.002;2023-04-08T09:09:04;8.30;99.90
324;DHT22;149;51.094;17.002;2023-04-08T09:11:44;8.30;99.90
324;DHT22;149;51.094;17.002;2023-04-08T09:14:22;8.10;99.90
324;DHT22;149;51.094;17.002;2023-04-08T09:16:51;7.90;99.90
324;DHT22;149;51.094;17.002;2023-04-08T09:19:18;7.80;99.90
324;DHT22;149;51.094;17.002;2023-04-08T09:22:06;7.80;99.90
324;DHT22;149;51.094;17.002;2023-04-08T09:24:35;7.80;99.90
324;DHT22;149;51.094;17.002;2023-04-08T09:27:05;7.70;99.90
324;DHT22;149;51.094;17.002;2023-04-08T09:29:32;8.10;99.90
324;DHT22;149;51.094;17.002;2023-04-08T09:32:04;8.60;99.90
324;DHT22;149;51.094;17.002;2023-04-08T09:34:32;8.90;99.90
324;DHT22;149;51.094;17.002;2023-04-08T09:37:00;8.90;99.90
324;DHT22;149;51.094;17.002;2023-04-08T09:39:27;9.10;99.90
324;DHT22;149;51.094;17.002;2023-04-08T09:41:57;8.80;99.90
324;DHT22;149;51.094;17.002;2023-04-08T09:44:28;8.70;99.90
324;DHT22;149;51.094;17.002;2023-04-08T09:47:11;8.50;99.90
324;DHT22;149;51.094;17.002;2023-04-08T09:49:54;8.40;99.90
324;DHT22;149;51.094;17.002;2023-04-08T09:52:44;8.20;99.90
324;DHT22;149;51.094;17.002;2023-04-08T09:55:12;8.30;99.90
324;DHT22;149;51.094;17.002;2023-04-08T09:57:56;8.40;99.90
324;DHT22;149;51.094;17.002;2023-04-08T10:00:29;8.70;99.90
324;DHT22;149;51.094;17.002;2023-04-08T10:05:52;8.80;99.90
324;DHT22;149;51.094;17.002;2023-04-08T10:08:25;8.70;99.90
324;DHT22;149;51.094;17.002;2023-04-08T10:10:54;9.00;99.90
324;DHT22;149;51.094;17.002;2023-04-08T10:13:22;8.80;99.90
324;DHT22;149;51.094;17.002;2023-04-08T10:15:49;8.70;99.90
324;DHT22;149;51.094;17.002;2023-04-08T10:20:47;8.40;99.90
324;DHT22;149;51.094;17.002;2023-04-08T10:23:16;8.40;99.90
324;DHT22;149;51.094;17.002;2023-04-08T10:25:45;8.60;99.90
324;DHT22;149;51.094;17.002;2023-04-08T10:30:46;8.80;99.90
324;DHT22;149;51.094;17.002;2023-04-08T10:35:46;9.00;99.90
324;DHT22;149;51.094;17.002;2023-04-08T10:38:17;9.30;99.90
324;DHT22;149;51.094;17.002;2023-04-08T10:40:48;9.90;99.90
324;DHT22;149;51.094;17.002;2023-04-08T10:43:15;9.80;99.90
324;DHT22;149;51.094;17.002;2023-04-08T10:45:43;10.40;99.90
324;DHT22;149;51.094;17.002;2023-04-08T10:48:15;11.00;99.90
324;DHT22;149;51.094;17.002;2023-04-08T10:51:03;11.30;99.90
324;DHT22;149;51.094;17.002;2023-04-08T10:53:31;11.30;99.90
324;DHT22;149;51.094;17.002;2023-04-08T10:56:18;11.60;99.90
324;DHT22;149;51.094;17.002;2023-04-08T10:58:49;11.50;99.90
324;DHT22;149;51.094;17.002;2023-04-08T11:01:18;11.70;99.90
324;DHT22;149;51.094;17.002;2023-04-08T11:03:45;11.50;99.90
324;DHT22;149;51.094;17.002;2023-04-08T11:06:12;11.70;99.90
324;DHT22;149;51.094;17.002;2023-04-08T11:08:39;12.00;99.90
324;DHT22;149;51.094;17.002;2023-04-08T11:11:07;11.80;99.90
324;DHT22;149;51.094;17.002;2023-04-08T11:13:39;11.90;99.90
324;DHT22;149;51.094;17.002;2023-04-08T11:16:17;11.40;99.90
324;DHT22;149;51.094;17.002;2023-04-08T11:18:45;11.10;99.90
324;DHT22;149;51.094;17.002;2023-04-08T11:21:14;10.90;99.90
324;DHT22;149;51.094;17.002;2023-04-08T11:23:42;10.90;99.90
324;DHT22;149;51.094;17.002;2023-04-08T11:26:10;10.50;99.90
324;DHT22;149;51.094;17.002;2023-04-08T11:28:39;10.80;99.90
324;DHT22;149;51.094;17.002;2023-04-08T11:31:06;11.50;99.90
324;DHT22;149;51.094;17.002;2023-04-08T11:33:34;11.00;99.90
324;DHT22;149;51.094;17.002;2023-04-08T11:36:02;10.50;99.90
324;DHT22;149;51.094;17.002;2023-04-08T11:38:38;11.00;99.90
324;DHT22;149;51.094;17.002;2023-04-08T11:41:07;11.20;99.90
324;DHT22;149;51.094;17.002;2023-04-08T11:43:33;11.40;99.90
324;DHT22;149;51.094;17.002;2023-04-08T11:46:11;10.90;99.90
324;DHT22;149;51.094;17.002;2023-04-08T11:48:59;10.40;99.90
324;DHT22;149;51.094;17.002;2023-04-08T11:51:28;10.20;99.90
324;DHT22;149;51.094;17.002;2023-04-08T11:53:55;10.30;99.90
324;DHT22;149;51.094;17.002;2023-04-08T11:56:23;10.40;99.90
324;DHT22;149;51.094;17.002;2023-04-08T11:58:51;10.50;99.90
324;DHT22;149;51.094;17.002;2023-04-08T12:01:18;11.00;99.90
324;DHT22;149;51.094;17.002;2023-04-08T12:04:00;11.40;99.90
324;DHT22;149;51.094;17.002;2023-04-08T12:06:28;11.60;99.90
324;DHT22;149;51.094;17.002;2023-04-08T12:08:55;11.70;99.90
324;DHT22;149;51.094;17.002;2023-04-08T12:11:22;11.60;99.90
324;DHT22;149;51.094;17.002;2023-04-08T12:13:49;11.50;99.90
324;DHT22;149;51.094;17.002;2023-04-08T12:16:18;11.70;99.90
324;DHT22;149;51.094;17.002;2023-04-08T12:18:46;12.10;99.90
324;DHT22;149;51.094;17.002;2023-04-08T12:21:13;12.10;99.90
324;DHT22;149;51.094;17.002;2023-04-08T12:23:40;11.70;99.90
324;DHT22;149;51.094;17.002;2023-04-08T12:26:07;11.70;99.90
324;DHT22;149;51.094;17.002;2023-04-08T12:28:33;12.00;99.90
324;DHT22;149;51.094;17.002;2023-04-08T12:31:01;12.40;99.90
324;DHT22;149;51.094;17.002;2023-04-08T12:33:29;12.60;99.90
324;DHT22;149;51.094;17.002;2023-04-08T12:35:56;12.50;99.90
324;DHT22;149;51.094;17.002;2023-04-08T12:38:24;12.70;99.90
324;DHT22;149;51.094;17.002;2023-04-08T12:40:53;13.00;99.90
324;DHT22;149;51.094;17.002;2023-04-08T12:43:21;13.00;99.90
324;DHT22;149;51.094;17.002;2023-04-08T12:45:49;12.50;99.90
324;DHT22;149;51.094;17.002;2023-04-08T12:48:16;12.00;99.90
324;DHT22;149;51.094;17.002;2023-04-08T12:50:43;11.90;99.90
324;DHT22;149;51.094;17.002;2023-04-08T12:53:10;12.10;99.90
324;DHT22;149;51.094;17.002;2023-04-08T12:55:37;11.90;99.90
324;DHT22;149;51.094;17.002;2023-04-08T12:58:04;11.70;99.90
324;DHT22;149;51.094;17.002;2023-04-08T13:00:31;11.60;99.90
324;DHT22;149;51.094;17.002;2023-04-08T13:03:01;12.00;99.90
324;DHT22;149;51.094;17.002;2023-04-08T13:05:28;11.70;99.90
324;DHT22;149;51.094;17.002;2023-04-08T13:08:09;11.80;99.90
324;DHT22;149;51.094;17.002;2023-04-08T13:10:38;11.90;99.90
324;DHT22;149;51.094;17.002;2023-04-08T13:13:05;12.00;99.90
324;DHT22;149;51.094;17.002;2023-04-08T13:15:34;12.00;99.90
324;DHT22;149;51.094;17.002;2023-04-08T13:18:04;11.90;99.90
324;DHT22;149;51.094;17.002;2023-04-08T13:20:31;11.50;99.90
324;DHT22;149;51.094;17.002;2023-04-08T13:22:59;11.40;99.90
324;DHT22;149;51.094;17.002;2023-04-08T13:25:29;11.60;99.90
324;DHT22;149;51.094;17.002;2023-04-08T13:27:55;12.10;99.90
324;DHT22;149;51.094;17.002;2023-04-08T13:30:30;12.50;99.90
324;DHT22;149;51.094;17.002;2023-04-08T13:32:57;12.60;99.90
324;DHT22;149;51.094;17.002;2023-04-08T13:35:24;12.20;99.90
324;DHT22;149;51.094;17.002;2023-04-08T13:37:52;12.10;99.90
324;DHT22;149;51.094;17.002;2023-04-08T13:40:19;11.70;99.90
324;DHT22;149;51.094;17.002;2023-04-08T13:42:47;11.70;99.90
324;DHT22;149;51.094;17.002;2023-04-08T13:45:14;11.60;99.90
324;DHT22;149;51.094;17.002;2023-04-08T13:47:41;11.60;99.90
324;DHT22;149;51.094;17.002;2023-04-08T13:50:08;11.70;99.90
324;DHT22;149;51.094;17.002;2023-04-08T13:52:35;11.70;99.90
324;DHT22;149;51.094;17.002;2023-04-08T13:55:02;11.70;99.90
324;DHT22;149;51.094;17.002;2023-04-08T13:57:29;11.90;99.90
324;DHT22;149;51.094;17.002;2023-04-08T13:59:56;11.80;99.90
324;DHT22;149;51.094;17.002;2023-04-08T14:02:23;11.80;99.90
324;DHT22;149;51.094;17.002;2023-04-08T14:04:50;11.50;99.90
324;DHT22;149;51.094;17.002;2023-04-08T14:07:18;11.10;99.90
324;DHT22;149;51.094;17.002;2023-04-08T14:09:48;11.20;99.90
324;DHT22;149;51.094;17.002;2023-04-08T14:12:15;11.40;99.90
324;DHT22;149;51.094;17.002;2023-04-08T14:14:42;11.70;99.90
324;DHT22;149;51.094;17.002;2023-04-08T14:17:09;12.20;99.90
324;DHT22;149;51.094;17.002;2023-04-08T14:19:36;12.20;99.90
324;DHT22;149;51.094;17.002;2023-04-08T14:22:05;12.50;99.90
324;DHT22;149;51.094;17.002;2023-04-08T14:24:32;12.50;99.90
324;DHT22;149;51.094;17.002;2023-04-08T14:27:00;12.50;99.90
324;DHT22;149;51.094;17.002;2023-04-08T14:29:27;12.50;99.90
324;DHT22;149;51.094;17.002;2023-04-08T14:31:57;12.40;99.90
324;DHT22;149;51.094;17.002;2023-04-08T14:34:23;12.10;99.90
324;DHT22;149;51.094;17.002;2023-04-08T14:36:51;12.00;99.90
324;DHT22;149;51.094;17.002;2023-04-08T14:39:17;12.10;99.90
324;DHT22;149;51.094;17.002;2023-04-08T14:41:44;11.90;99.90
324;DHT22;149;51.094;17.002;2023-04-08T14:44:13;12.00;99.90
324;DHT22;149;51.094;17.002;2023-04-08T14:46:40;12.00;99.90
324;DHT22;149;51.094;17.002;2023-04-08T14:49:07;12.20;99.90
324;DHT22;149;51.094;17.002;2023-04-08T14:51:34;12.40;99.90
324;DHT22;149;51.094;17.002;2023-04-08T14:54:03;12.60;99.90
324;DHT22;149;51.094;17.002;2023-04-08T14:56:31;12.50;99.90
324;DHT22;149;51.094;17.002;2023-04-08T14:58:58;12.30;99.90
324;DHT22;149;51.094;17.002;2023-04-08T15:01:25;12.30;99.90
324;DHT22;149;51.094;17.002;2023-04-08T15:03:54;12.40;99.90
324;DHT22;149;51.094;17.002;2023-04-08T15:06:21;12.50;99.90
324;DHT22;149;51.094;17.002;2023-04-08T15:08:48;12.60;99.90
324;DHT22;149;51.094;17.002;2023-04-08T15:11:16;12.80;99.90
324;DHT22;149;51.094;17.002;2023-04-08T15:13:45;12.70;99.90
324;DHT22;149;51.094;17.002;2023-04-08T15:16:12;12.70;99.90
324;DHT22;149;51.094;17.002;2023-04-08T15:18:39;12.60;99.90
324;DHT22;149;51.094;17.002;2023-04-08T15:21:06;12.60;99.90
324;DHT22;149;51.094;17.002;2023-04-08T15:23:32;12.50;99.90
324;DHT22;149;51.094;17.002;2023-04-08T15:26:00;12.50;99.90
324;DHT22;149;51.094;17.002;2023-04-08T15:28:26;12.40;99.90
324;DHT22;149;51.094;17.002;2023-04-08T15:30:53;12.30;99.90
324;DHT22;149;51.094;17.002;2023-04-08T15:33:20;12.10;99.90
324;DHT22;149;51.094;17.002;2023-04-08T15:35:47;11.90;99.90
324;DHT22;149;51.094;17.002;2023-04-08T15:38:15;11.90;99.90
324;DHT22;149;51.094;17.002;2023-04-08T15:40:43;11.80;99.90
324;DHT22;149;51.094;17.002;2023-04-08T15:43:13;11.70;99.90
324;DHT22;149;51.094;17.002;2023-04-08T15:45:42;11.60;99.90
324;DHT22;149;51.094;17.002;2023-04-08T15:48:10;11.60;99.90
324;DHT22;149;51.094;17.002;2023-04-08T15:50:39;11.70;99.90
324;DHT22;149;51.094;17.002;2023-04-08T15:53:07;11.80;99.90
324;DHT22;149;51.094;17.002;2023-04-08T15:55:38;11.80;99.90
324;DHT22;149;51.094;17.002;2023-04-08T15:58:06;12.00;99.90
324;DHT22;149;51.094;17.002;2023-04-08T16:00:33;11.90;99.90
324;DHT22;149;51.094;17.002;2023-04-08T16:03:00;11.90;99.90
324;DHT22;149;51.094;17.002;2023-04-08T16:05:27;11.80;99.90
324;DHT22;149;51.094;17.002;2023-04-08T16:07:55;11.90;99.90
324;DHT22;149;51.094;17.002;2023-04-08T16:10:23;11.70;99.90
324;DHT22;149;51.094;17.002;2023-04-08T16:12:52;11.70;99.90
324;DHT22;149;51.094;17.002;2023-04-08T16:15:19;11.70;99.90
324;DHT22;149;51.094;17.002;2023-04-08T16:17:52;11.70;99.90
324;DHT22;149;51.094;17.002;2023-04-08T16:20:19;11.60;99.90
324;DHT22;149;51.094;17.002;2023-04-08T16:22:46;11.70;99.90
324;DHT22;149;51.094;17.002;2023-04-08T16:25:16;11.60;99.90
324;DHT22;149;51.094;17.002;2023-04-08T16:27:46;11.60;99.90
324;DHT22;149;51.094;17.002;2023-04-08T16:30:13;11.60;99.90
324;DHT22;149;51.094;17.002;2023-04-08T16:32:42;11.70;99.90
324;DHT22;149;51.094;17.002;2023-04-08T16:35:10;11.70;99.90
324;DHT22;149;51.094;17.002;2023-04-08T16:37:39;11.60;99.90
324;DHT22;149;51.094;17.002;2023-04-08T16:40:07;11.60;99.90
324;DHT22;149;51.094;17.002;2023-04-08T16:42:34;11.60;99.90
324;DHT22;149;51.094;17.002;2023-04-08T16:45:03;11.60;99.90
324;DHT22;149;51.094;17.002;2023-04-08T16:47:31;11.60;99.90
324;DHT22;149;51.094;17.002;2023-04-08T16:49:58;11.40;99.90
324;DHT22;149;51.094;17.002;2023-04-08T16:52:25;11.20;99.90